createdAt,value
2022-09-15T00:00:25.691Z,-141.87
2022-09-15T00:01:24.817Z,-141.87
2022-09-15T00:02:24.871Z,-141.87
2022-09-15T00:03:24.693Z,-141.87
2022-09-15T00:04:24.713Z,-141.87
2022-09-15T00:05:25.642Z,-141.87
2022-09-15T00:06:24.651Z,-141.87
2022-09-15T00:07:24.643Z,-141.87
2022-09-15T00:08:24.615Z,-141.87
2022-09-15T00:09:24.618Z,-141.87
2022-09-15T00:10:25.719Z,-141.87
2022-09-15T00:11:24.584Z,-141.87
2022-09-15T00:12:24.564Z,-141.87
2022-09-15T00:13:24.541Z,-143.08
2022-09-15T00:14:27.515Z,-141.87
2022-09-15T00:15:27.553Z,-141.87
2022-09-15T00:16:24.545Z,-141.87
2022-09-15T00:17:24.477Z,-141.87
2022-09-15T00:18:24.457Z,-141.87
2022-09-15T00:19:24.458Z,-143.08
2022-09-15T00:20:25.325Z,-143.08
2022-09-15T00:21:24.438Z,-143.08
2022-09-15T00:22:24.428Z,-143.08
2022-09-15T00:23:24.428Z,-143.08
2022-09-15T00:24:24.410Z,-143.08
2022-09-15T00:25:25.861Z,-143.08
2022-09-15T00:26:24.402Z,-143.08
2022-09-15T00:27:24.371Z,-143.08
2022-09-15T00:28:24.500Z,-144.30
2022-09-15T00:29:24.320Z,-144.30
2022-09-15T00:30:25.852Z,-144.30
2022-09-15T00:31:24.320Z,-144.30
2022-09-15T00:32:24.291Z,-144.30
2022-09-15T00:33:24.282Z,-144.30
2022-09-15T00:34:27.294Z,-143.08
2022-09-15T00:35:28.244Z,-143.08
2022-09-15T00:36:24.234Z,-143.08
2022-09-15T00:37:24.222Z,-143.08
2022-09-15T00:38:24.215Z,-143.08
2022-09-15T00:39:24.264Z,-143.08
2022-09-15T00:40:25.211Z,-143.08
2022-09-15T00:41:24.165Z,-143.08
2022-09-15T00:42:24.167Z,-144.30
2022-09-15T00:43:24.145Z,-143.08
2022-09-15T00:44:24.137Z,-143.08
2022-09-15T00:45:24.966Z,-143.08
2022-09-15T00:46:24.116Z,-143.08
2022-09-15T00:47:24.097Z,-144.30
2022-09-15T00:48:24.097Z,-143.08
2022-09-15T00:49:24.068Z,-144.30
2022-09-15T00:50:24.058Z,-144.30
2022-09-15T00:51:24.052Z,-144.30
2022-09-15T00:52:24.028Z,-144.30
2022-09-15T00:53:24.029Z,-144.30
2022-09-15T00:54:26.979Z,-144.30
2022-09-15T00:55:27.971Z,-144.30
2022-09-15T00:56:24.012Z,-144.30
2022-09-15T00:57:23.951Z,-144.30
2022-09-15T00:58:23.940Z,-144.30
2022-09-15T00:59:23.952Z,-144.30
2022-09-15T01:00:23.922Z,-144.30
2022-09-15T01:01:23.925Z,-144.30
2022-09-15T01:02:23.918Z,-144.30
2022-09-15T01:03:23.860Z,-144.30
2022-09-15T01:04:23.874Z,-144.30
2022-09-15T01:05:24.592Z,-144.30
2022-09-15T01:06:23.883Z,-144.30
2022-09-15T01:07:23.823Z,-144.30
2022-09-15T01:08:23.814Z,-145.52
2022-09-15T01:09:23.792Z,-145.52
2022-09-15T01:10:23.864Z,-145.52
2022-09-15T01:11:23.782Z,-144.30
2022-09-15T01:12:23.805Z,-145.52
2022-09-15T01:13:23.735Z,-145.52
2022-09-15T01:14:26.707Z,-144.30
2022-09-15T01:15:27.485Z,-145.52
2022-09-15T01:16:23.697Z,-145.52
2022-09-15T01:17:23.667Z,-145.52
2022-09-15T01:18:23.677Z,-145.52
2022-09-15T01:19:23.657Z,-145.52
2022-09-15T01:20:23.625Z,-145.52
2022-09-15T01:21:23.612Z,-145.52
2022-09-15T01:22:23.615Z,-145.52
2022-09-15T01:23:23.609Z,-145.52
2022-09-15T01:24:23.579Z,-145.52
2022-09-15T01:25:23.559Z,-145.52
2022-09-15T01:26:23.580Z,-145.52
2022-09-15T01:27:41.195Z,-145.52
2022-09-15T01:28:24.515Z,-145.52
2022-09-15T01:29:23.510Z,-145.52
2022-09-15T01:30:23.530Z,-145.52
2022-09-15T01:31:23.566Z,-145.52
2022-09-15T01:32:23.513Z,-145.52
2022-09-15T01:33:23.451Z,-144.30
2022-09-15T01:34:26.442Z,-144.30
2022-09-15T01:35:27.211Z,-145.52
2022-09-15T01:36:23.423Z,-145.52
2022-09-15T01:37:23.424Z,-145.52
2022-09-15T01:38:23.424Z,-145.52
2022-09-15T01:39:23.375Z,-145.52
2022-09-15T01:40:23.484Z,-145.52
2022-09-15T01:41:23.358Z,-145.52
2022-09-15T01:42:23.437Z,-145.52
2022-09-15T01:43:23.324Z,-145.52
2022-09-15T01:44:23.325Z,-145.52
2022-09-15T01:45:23.344Z,-145.52
2022-09-15T01:46:23.278Z,-145.52
2022-09-15T01:47:23.274Z,-145.52
2022-09-15T01:48:23.277Z,-145.52
2022-09-15T01:49:23.252Z,-145.52
2022-09-15T01:50:23.219Z,-145.52
2022-09-15T01:51:23.209Z,-145.52
2022-09-15T01:52:23.196Z,-145.52
2022-09-15T01:53:23.237Z,-145.52
2022-09-15T01:54:26.178Z,-145.52
2022-09-15T01:55:26.169Z,-145.52
2022-09-15T01:56:23.139Z,-145.52
2022-09-15T01:57:23.130Z,-145.52
2022-09-15T01:58:23.128Z,-145.52
2022-09-15T01:59:23.141Z,-145.52
2022-09-15T02:00:23.091Z,-145.52
2022-09-15T02:01:23.163Z,-145.52
2022-09-15T02:02:23.124Z,-144.30
2022-09-15T02:03:23.051Z,-145.52
2022-09-15T02:04:23.042Z,-144.30
2022-09-15T02:05:23.084Z,-144.30
2022-09-15T02:06:23.003Z,-144.30
2022-09-15T02:07:22.993Z,-144.30
2022-09-15T02:08:22.976Z,-144.30
2022-09-15T02:09:22.964Z,-144.30
2022-09-15T02:10:22.968Z,-144.30
2022-09-15T02:11:23.006Z,-144.30
2022-09-15T02:12:22.925Z,-144.30
2022-09-15T02:13:22.914Z,-144.30
2022-09-15T02:14:25.910Z,-144.30
2022-09-15T02:15:25.897Z,-144.30
2022-09-15T02:16:22.930Z,-145.52
2022-09-15T02:17:22.885Z,-144.30
2022-09-15T02:18:22.847Z,-145.52
2022-09-15T02:19:22.870Z,-145.52
2022-09-15T02:20:22.817Z,-145.52
2022-09-15T02:21:22.806Z,-145.52
2022-09-15T02:22:22.789Z,-145.52
2022-09-15T02:23:22.788Z,-145.52
2022-09-15T02:24:22.824Z,-145.52
2022-09-15T02:25:22.754Z,-145.52
2022-09-15T02:26:22.731Z,-145.52
2022-09-15T02:27:22.733Z,-144.30
2022-09-15T02:28:22.715Z,-144.30
2022-09-15T02:29:22.700Z,-144.30
2022-09-15T02:30:22.721Z,-145.52
2022-09-15T02:31:22.731Z,-144.30
2022-09-15T02:32:22.670Z,-144.30
2022-09-15T02:33:22.642Z,-144.30
2022-09-15T02:34:25.635Z,-144.30
2022-09-15T02:35:25.663Z,-144.30
2022-09-15T02:36:22.626Z,-144.30
2022-09-15T02:37:22.585Z,-145.52
2022-09-15T02:38:22.580Z,-144.30
2022-09-15T02:39:22.576Z,-145.52
2022-09-15T02:40:22.617Z,-145.52
2022-09-15T02:41:22.573Z,-145.52
2022-09-15T02:42:22.529Z,-145.52
2022-09-15T02:43:22.508Z,-144.30
2022-09-15T02:44:22.564Z,-144.30
2022-09-15T02:45:22.500Z,-145.52
2022-09-15T02:46:22.467Z,-144.30
2022-09-15T02:47:22.448Z,-144.30
2022-09-15T02:48:22.458Z,-145.52
2022-09-15T02:49:22.427Z,-145.52
2022-09-15T02:50:22.568Z,-145.52
2022-09-15T02:51:22.398Z,-144.30
2022-09-15T02:52:22.388Z,-144.30
2022-09-15T02:53:22.382Z,-144.30
2022-09-15T02:54:25.370Z,-144.30
2022-09-15T02:55:25.412Z,-144.30
2022-09-15T02:56:22.338Z,-144.30
2022-09-15T02:57:22.334Z,-144.30
2022-09-15T02:58:22.308Z,-144.30
2022-09-15T02:59:22.291Z,-144.30
2022-09-15T03:00:22.282Z,-144.30
2022-09-15T03:01:22.400Z,-144.30
2022-09-15T03:02:22.297Z,-144.30
2022-09-15T03:03:22.233Z,-144.30
2022-09-15T03:04:22.232Z,-144.30
2022-09-15T03:05:22.240Z,-144.30
2022-09-15T03:06:22.204Z,-144.30
2022-09-15T03:07:22.234Z,-144.30
2022-09-15T03:08:22.172Z,-144.30
2022-09-15T03:09:22.155Z,-144.30
2022-09-15T03:10:22.163Z,-144.30
2022-09-15T03:11:22.128Z,-144.30
2022-09-15T03:12:22.115Z,-144.30
2022-09-15T03:13:22.127Z,-144.30
2022-09-15T03:14:25.118Z,-144.30
2022-09-15T03:15:25.088Z,-144.30
2022-09-15T03:16:22.159Z,-144.30
2022-09-15T03:17:22.047Z,-144.30
2022-09-15T03:18:22.074Z,-144.30
2022-09-15T03:19:22.018Z,-144.30
2022-09-15T03:20:22.009Z,-144.30
2022-09-15T03:21:21.997Z,-143.08
2022-09-15T03:22:22.061Z,-144.30
2022-09-15T03:23:21.970Z,-144.30
2022-09-15T03:24:21.960Z,-144.30
2022-09-15T03:25:21.943Z,-144.30
2022-09-15T03:26:21.930Z,-144.30
2022-09-15T03:27:21.910Z,-144.30
2022-09-15T03:28:21.931Z,-144.30
2022-09-15T03:29:21.882Z,-144.30
2022-09-15T03:30:21.902Z,-144.30
2022-09-15T03:31:21.877Z,-144.30
2022-09-15T03:32:21.851Z,-144.30
2022-09-15T03:33:21.872Z,-144.30
2022-09-15T03:34:24.841Z,-144.30
2022-09-15T03:35:24.823Z,-144.30
2022-09-15T03:36:21.793Z,-144.30
2022-09-15T03:37:21.781Z,-144.30
2022-09-15T03:38:21.765Z,-144.30
2022-09-15T03:39:21.817Z,-144.30
2022-09-15T03:40:21.801Z,-144.30
2022-09-15T03:41:21.724Z,-144.30
2022-09-15T03:42:21.725Z,-144.30
2022-09-15T03:43:21.697Z,-144.30
2022-09-15T03:44:21.696Z,-144.30
2022-09-15T03:45:21.708Z,-144.30
2022-09-15T03:46:21.656Z,-144.30
2022-09-15T03:47:21.648Z,-144.30
2022-09-15T03:48:21.644Z,-144.30
2022-09-15T03:49:21.617Z,-144.30
2022-09-15T03:50:21.628Z,-144.30
2022-09-15T03:51:21.600Z,-144.30
2022-09-15T03:52:21.578Z,-144.30
2022-09-15T03:53:21.559Z,-144.30
2022-09-15T03:54:24.560Z,-144.30
2022-09-15T03:55:24.580Z,-143.08
2022-09-15T03:56:21.520Z,-143.08
2022-09-15T03:57:21.510Z,-143.08
2022-09-15T03:58:21.502Z,-143.08
2022-09-15T03:59:21.481Z,-143.08
2022-09-15T04:00:21.503Z,-143.08
2022-09-15T04:01:21.532Z,-143.08
2022-09-15T04:02:21.581Z,-143.08
2022-09-15T04:03:21.430Z,-144.30
2022-09-15T04:04:21.423Z,-144.30
2022-09-15T04:05:21.555Z,-144.30
2022-09-15T04:06:21.403Z,-144.30
2022-09-15T04:07:21.374Z,-144.30
2022-09-15T04:08:21.364Z,-144.30
2022-09-15T04:09:21.360Z,-144.30
2022-09-15T04:10:21.335Z,-144.30
2022-09-15T04:11:21.350Z,-144.30
2022-09-15T04:12:21.329Z,-144.30
2022-09-15T04:13:24.420Z,-144.30
2022-09-15T04:14:25.286Z,-144.30
2022-09-15T04:15:24.279Z,-144.30
2022-09-15T04:16:21.326Z,-144.30
2022-09-15T04:17:21.238Z,-144.30
2022-09-15T04:18:21.230Z,-144.30
2022-09-15T04:19:21.218Z,-144.30
2022-09-15T04:20:21.199Z,-144.30
2022-09-15T04:21:21.186Z,-144.30
2022-09-15T04:22:21.210Z,-144.30
2022-09-15T04:23:21.159Z,-144.30
2022-09-15T04:24:21.148Z,-144.30
2022-09-15T04:25:21.132Z,-144.30
2022-09-15T04:26:21.132Z,-144.30
2022-09-15T04:27:21.130Z,-144.30
2022-09-15T04:28:21.091Z,-144.30
2022-09-15T04:29:21.081Z,-144.30
2022-09-15T04:30:21.062Z,-144.30
2022-09-15T04:31:21.115Z,-144.30
2022-09-15T04:32:21.079Z,-144.30
2022-09-15T04:33:21.024Z,-144.30
2022-09-15T04:34:24.023Z,-144.30
2022-09-15T04:35:24.076Z,-144.30
2022-09-15T04:36:20.984Z,-144.30
2022-09-15T04:37:20.973Z,-144.30
2022-09-15T04:38:20.954Z,-144.30
2022-09-15T04:39:20.956Z,-144.30
2022-09-15T04:40:20.973Z,-144.30
2022-09-15T04:41:20.946Z,-144.30
2022-09-15T04:42:20.925Z,-144.30
2022-09-15T04:43:20.886Z,-144.30
2022-09-15T04:44:20.876Z,-144.30
2022-09-15T04:45:20.886Z,-144.30
2022-09-15T04:46:20.910Z,-144.30
2022-09-15T04:47:20.835Z,-144.30
2022-09-15T04:48:20.828Z,-144.30
2022-09-15T04:49:20.820Z,-144.30
2022-09-15T04:50:20.848Z,-144.30
2022-09-15T04:51:20.782Z,-144.30
2022-09-15T04:52:20.791Z,-144.30
2022-09-15T04:53:20.760Z,-144.30
2022-09-15T04:54:23.753Z,-144.30
2022-09-15T04:55:23.775Z,-144.30
2022-09-15T04:56:20.720Z,-144.30
2022-09-15T04:57:20.728Z,-144.30
2022-09-15T04:58:20.719Z,-144.30
2022-09-15T04:59:20.697Z,-144.30
2022-09-15T05:00:20.662Z,-144.30
2022-09-15T05:01:20.732Z,-144.30
2022-09-15T05:02:20.713Z,-144.30
2022-09-15T05:03:20.669Z,-143.08
2022-09-15T05:04:20.613Z,-143.08
2022-09-15T05:05:20.592Z,-143.08
2022-09-15T05:06:20.588Z,-143.08
2022-09-15T05:07:20.593Z,-143.08
2022-09-15T05:08:20.555Z,-143.08
2022-09-15T05:09:20.534Z,-143.08
2022-09-15T05:10:20.574Z,-143.08
2022-09-15T05:11:20.505Z,-143.08
2022-09-15T05:12:20.498Z,-143.08
2022-09-15T05:13:20.487Z,-143.08
2022-09-15T05:14:23.506Z,-144.30
2022-09-15T05:15:23.528Z,-144.30
2022-09-15T05:16:20.514Z,-144.30
2022-09-15T05:17:23.102Z,-144.30
2022-09-15T05:18:20.416Z,-144.30
2022-09-15T05:19:20.406Z,-144.30
2022-09-15T05:20:20.390Z,-144.30
2022-09-15T05:21:20.397Z,-144.30
2022-09-15T05:22:20.359Z,-144.30
2022-09-15T05:23:20.353Z,-144.30
2022-09-15T05:24:20.330Z,-144.30
2022-09-15T05:25:20.317Z,-144.30
2022-09-15T05:26:20.370Z,-145.52
2022-09-15T05:27:20.290Z,-145.52
2022-09-15T05:28:20.281Z,-145.52
2022-09-15T05:29:20.262Z,-145.52
2022-09-15T05:30:39.533Z,-145.52
2022-09-15T05:31:21.324Z,-145.52
2022-09-15T05:32:20.222Z,-145.52
2022-09-15T05:33:20.214Z,-144.30
2022-09-15T05:34:23.233Z,-144.30
2022-09-15T05:35:23.194Z,-144.30
2022-09-15T05:36:20.172Z,-143.08
2022-09-15T05:37:20.165Z,-141.87
2022-09-15T05:38:20.144Z,-141.87
2022-09-15T05:39:20.156Z,-141.87
2022-09-15T05:40:20.224Z,-141.87
2022-09-15T05:41:20.105Z,-141.87
2022-09-15T05:42:20.087Z,-141.87
2022-09-15T05:43:20.075Z,-141.87
2022-09-15T05:44:20.076Z,-141.87
2022-09-15T05:45:20.047Z,-141.87
2022-09-15T05:46:20.100Z,-141.87
2022-09-15T05:47:20.061Z,-141.87
2022-09-15T05:48:20.009Z,-141.87
2022-09-15T05:49:19.988Z,-141.87
2022-09-15T05:50:19.999Z,-143.08
2022-09-15T05:51:20.008Z,-143.08
2022-09-15T05:52:19.949Z,-143.08
2022-09-15T05:53:19.953Z,-143.08
2022-09-15T05:54:22.930Z,-144.30
2022-09-15T05:55:22.921Z,-144.30
2022-09-15T05:56:19.901Z,-144.30
2022-09-15T05:57:19.928Z,-145.52
2022-09-15T05:58:19.873Z,-145.52
2022-09-15T05:59:19.862Z,-145.52
2022-09-15T06:00:19.853Z,-145.52
2022-09-15T06:01:19.831Z,-145.52
2022-09-15T06:02:19.915Z,-145.52
2022-09-15T06:03:19.870Z,-146.74
2022-09-15T06:04:19.819Z,-146.74
2022-09-15T06:05:19.775Z,-146.74
2022-09-15T06:06:19.766Z,-146.74
2022-09-15T06:07:19.757Z,-146.74
2022-09-15T06:08:19.785Z,-146.74
2022-09-15T06:09:19.725Z,-146.74
2022-09-15T06:10:19.715Z,-146.74
2022-09-15T06:11:19.707Z,-146.74
2022-09-15T06:12:19.686Z,-147.96
2022-09-15T06:13:19.667Z,-147.96
2022-09-15T06:14:22.707Z,-147.96
2022-09-15T06:15:22.655Z,-147.96
2022-09-15T06:16:19.792Z,-147.96
2022-09-15T06:17:19.619Z,-147.96
2022-09-15T06:18:19.606Z,-147.96
2022-09-15T06:19:19.588Z,-149.17
2022-09-15T06:20:19.579Z,-149.17
2022-09-15T06:21:19.558Z,-149.17
2022-09-15T06:22:19.576Z,-149.17
2022-09-15T06:23:19.555Z,-149.17
2022-09-15T06:24:19.564Z,-149.17
2022-09-15T06:25:19.512Z,-149.17
2022-09-15T06:26:19.502Z,-149.17
2022-09-15T06:27:19.482Z,-149.17
2022-09-15T06:28:19.464Z,-149.17
2022-09-15T06:29:19.768Z,-149.17
2022-09-15T06:30:19.468Z,-149.17
2022-09-15T06:31:19.646Z,-149.17
2022-09-15T06:32:19.804Z,-149.17
2022-09-15T06:33:19.409Z,-150.39
2022-09-15T06:34:22.815Z,-150.39
2022-09-15T06:35:22.424Z,-150.39
2022-09-15T06:36:19.422Z,-150.39
2022-09-15T06:37:19.434Z,-150.39
2022-09-15T06:38:19.364Z,-150.39
2022-09-15T06:39:19.388Z,-150.39
2022-09-15T06:40:19.411Z,-150.39
2022-09-15T06:41:19.327Z,-150.39
2022-09-15T06:42:19.277Z,-150.39
2022-09-15T06:43:19.348Z,-150.39
2022-09-15T06:44:19.277Z,-150.39
2022-09-15T06:45:19.277Z,-150.39
2022-09-15T06:46:19.316Z,-150.39
2022-09-15T06:47:19.208Z,-150.39
2022-09-15T06:48:24.766Z,-149.17
2022-09-15T06:49:20.208Z,-149.17
2022-09-15T06:50:19.249Z,-149.17
2022-09-15T06:51:19.230Z,-149.17
2022-09-15T06:52:19.143Z,-149.17
2022-09-15T06:53:19.167Z,-149.17
2022-09-15T06:54:22.130Z,-149.17
2022-09-15T06:55:22.161Z,-149.17
2022-09-15T06:56:19.182Z,-149.17
2022-09-15T06:57:19.123Z,-149.17
2022-09-15T06:58:19.052Z,-149.17
2022-09-15T06:59:19.051Z,-149.17
2022-09-15T07:00:19.042Z,-150.39
2022-09-15T07:01:19.100Z,-150.39
2022-09-15T07:02:19.085Z,-150.39
2022-09-15T07:03:19.064Z,-150.39
2022-09-15T07:04:18.979Z,-150.39
2022-09-15T07:05:18.964Z,-150.39
2022-09-15T07:06:18.945Z,-150.39
2022-09-15T07:07:18.968Z,-150.39
2022-09-15T07:08:18.922Z,-150.39
2022-09-15T07:09:18.906Z,-149.17
2022-09-15T07:10:18.894Z,-150.39
2022-09-15T07:11:18.907Z,-149.17
2022-09-15T07:12:18.898Z,-150.39
2022-09-15T07:13:18.907Z,-149.17
2022-09-15T07:14:21.857Z,-149.17
2022-09-15T07:15:21.839Z,-149.17
2022-09-15T07:16:18.908Z,-149.17
2022-09-15T07:17:18.817Z,-149.17
2022-09-15T07:18:18.779Z,-147.96
2022-09-15T07:19:18.819Z,-149.17
2022-09-15T07:20:18.758Z,-147.96
2022-09-15T07:21:18.750Z,-147.96
2022-09-15T07:22:18.737Z,-146.74
2022-09-15T07:23:18.718Z,-146.74
2022-09-15T07:24:18.712Z,-146.74
2022-09-15T07:25:18.741Z,-145.52
2022-09-15T07:26:18.672Z,-145.52
2022-09-15T07:27:18.671Z,-145.52
2022-09-15T07:28:18.646Z,-145.52
2022-09-15T07:29:18.635Z,-144.30
2022-09-15T07:30:18.621Z,-144.30
2022-09-15T07:31:18.720Z,-144.30
2022-09-15T07:32:18.595Z,-143.08
2022-09-15T07:33:18.587Z,-143.08
2022-09-15T07:34:21.573Z,-143.08
2022-09-15T07:35:21.577Z,-143.08
2022-09-15T07:36:18.563Z,-144.30
2022-09-15T07:37:18.557Z,-144.30
2022-09-15T07:38:18.516Z,-144.30
2022-09-15T07:39:18.506Z,-143.08
2022-09-15T07:40:18.549Z,-144.30
2022-09-15T07:41:18.468Z,-144.30
2022-09-15T07:42:18.500Z,-145.52
2022-09-15T07:43:18.448Z,-144.30
2022-09-15T07:44:18.427Z,-144.30
2022-09-15T07:45:18.606Z,-144.30
2022-09-15T07:46:18.399Z,-145.52
2022-09-15T07:47:18.392Z,-145.52
2022-09-15T07:48:18.405Z,-146.74
2022-09-15T07:49:18.360Z,-146.74
2022-09-15T07:50:18.350Z,-146.74
2022-09-15T07:51:18.356Z,-147.96
2022-09-15T07:52:18.326Z,-147.96
2022-09-15T07:53:18.364Z,-147.96
2022-09-15T07:54:23.006Z,-149.17
2022-09-15T07:55:21.293Z,-149.17
2022-09-15T07:56:18.270Z,-149.17
2022-09-15T07:57:18.263Z,-150.39
2022-09-15T07:58:18.253Z,-150.39
2022-09-15T07:59:18.254Z,-150.39
2022-09-15T08:00:18.214Z,-151.61
2022-09-15T08:01:18.277Z,-150.39
2022-09-15T08:02:18.267Z,-150.39
2022-09-15T08:03:18.196Z,-150.39
2022-09-15T08:04:18.155Z,-151.61
2022-09-15T08:05:18.157Z,-151.61
2022-09-15T08:06:18.137Z,-151.61
2022-09-15T08:07:18.122Z,-151.61
2022-09-15T08:08:18.140Z,-151.61
2022-09-15T08:09:18.098Z,-151.61
2022-09-15T08:10:18.078Z,-151.61
2022-09-15T08:11:18.984Z,-151.61
2022-09-15T08:12:18.101Z,-151.61
2022-09-15T08:13:18.039Z,-151.61
2022-09-15T08:14:21.056Z,-151.61
2022-09-15T08:15:21.050Z,-151.61
2022-09-15T08:16:18.140Z,-151.61
2022-09-15T08:17:17.992Z,-151.61
2022-09-15T08:19:34.328Z,-151.61
2022-09-15T08:20:34.240Z,-151.61
2022-09-15T08:21:34.228Z,-150.39
2022-09-15T08:22:34.210Z,-151.61
2022-09-15T08:23:34.190Z,-151.61
2022-09-15T08:24:34.190Z,-151.61
2022-09-15T08:25:34.218Z,-151.61
2022-09-15T08:26:34.162Z,-152.83
2022-09-15T08:27:34.135Z,-152.83
2022-09-15T08:28:34.121Z,-152.83
2022-09-15T08:29:34.112Z,-152.83
2022-09-15T08:30:34.094Z,-154.04
2022-09-15T08:31:34.271Z,-154.04
2022-09-15T08:32:34.082Z,-154.04
2022-09-15T08:33:34.063Z,-154.04
2022-09-15T08:34:34.066Z,-154.04
2022-09-15T08:35:34.095Z,-154.04
2022-09-15T08:36:34.057Z,-154.04
2022-09-15T08:37:34.034Z,-154.04
2022-09-15T08:38:36.995Z,-152.83
2022-09-15T08:39:36.986Z,-152.83
2022-09-15T08:40:34.090Z,-152.83
2022-09-15T08:41:34.894Z,-151.61
2022-09-15T08:42:33.946Z,-151.61
2022-09-15T08:43:33.957Z,-151.61
2022-09-15T08:44:33.930Z,-151.61
2022-09-15T08:45:34.068Z,-150.39
2022-09-15T08:46:33.906Z,-150.39
2022-09-15T08:47:33.882Z,-151.61
2022-09-15T08:48:33.859Z,-151.61
2022-09-15T08:49:50.601Z,-150.39
2022-09-15T08:50:34.857Z,-150.39
2022-09-15T08:51:33.814Z,-150.39
2022-09-15T08:52:33.804Z,-151.61
2022-09-15T08:53:33.793Z,-151.61
2022-09-15T08:54:33.772Z,-152.83
2022-09-15T08:55:33.793Z,-152.83
2022-09-15T08:56:33.751Z,-152.83
2022-09-15T08:57:33.745Z,-152.83
2022-09-15T08:58:36.722Z,-152.83
2022-09-15T08:59:36.725Z,-152.83
2022-09-15T09:00:33.693Z,-152.83
2022-09-15T09:01:33.719Z,-152.83
2022-09-15T09:02:33.714Z,-152.83
2022-09-15T09:03:33.646Z,-152.83
2022-09-15T09:04:33.645Z,-154.04
2022-09-15T09:05:33.632Z,-152.83
2022-09-15T09:06:33.635Z,-154.04
2022-09-15T09:07:33.596Z,-152.83
2022-09-15T09:08:33.601Z,-154.04
2022-09-15T09:09:33.568Z,-154.04
2022-09-15T09:10:33.557Z,-152.83
2022-09-15T09:11:33.569Z,-152.83
2022-09-15T09:12:33.538Z,-154.04
2022-09-15T09:13:35.729Z,-154.04
2022-09-15T09:14:33.508Z,-154.04
2022-09-15T09:15:33.543Z,-154.04
2022-09-15T09:16:33.509Z,-154.04
2022-09-15T09:17:33.473Z,-154.04
2022-09-15T09:18:36.459Z,-154.04
2022-09-15T09:19:36.463Z,-154.04
2022-09-15T09:20:33.438Z,-154.04
2022-09-15T09:21:33.444Z,-154.04
2022-09-15T09:22:33.420Z,-154.04
2022-09-15T09:23:33.382Z,-154.04
2022-09-15T09:24:33.379Z,-154.04
2022-09-15T09:25:33.360Z,-155.26
2022-09-15T09:26:33.374Z,-155.26
2022-09-15T09:27:33.352Z,-156.48
2022-09-15T09:28:33.324Z,-156.48
2022-09-15T09:29:33.328Z,-156.48
2022-09-15T09:30:33.307Z,-156.48
2022-09-15T09:31:33.345Z,-156.48
2022-09-15T09:32:33.289Z,-156.48
2022-09-15T09:33:33.257Z,-156.48
2022-09-15T09:34:33.244Z,-156.48
2022-09-15T09:35:33.228Z,-156.48
2022-09-15T09:36:33.230Z,-155.26
2022-09-15T09:37:33.229Z,-155.26
2022-09-15T09:38:36.198Z,-155.26
2022-09-15T09:39:36.190Z,-155.26
2022-09-15T09:40:33.206Z,-155.26
2022-09-15T09:41:33.195Z,-155.26
2022-09-15T09:42:33.141Z,-154.04
2022-09-15T09:43:33.110Z,-154.04
2022-09-15T09:44:33.110Z,-152.83
2022-09-15T09:45:33.097Z,-152.83
2022-09-15T09:46:33.137Z,-151.61
2022-09-15T09:47:33.093Z,-152.83
2022-09-15T09:48:33.052Z,-151.61
2022-09-15T09:49:33.033Z,-151.61
2022-09-15T09:50:33.022Z,-151.61
2022-09-15T09:51:33.034Z,-150.39
2022-09-15T09:52:33.009Z,-151.61
2022-09-15T09:53:33.020Z,-151.61
2022-09-15T09:54:32.974Z,-151.61
2022-09-15T09:55:32.955Z,-151.61
2022-09-15T09:56:32.985Z,-151.61
2022-09-15T09:57:32.957Z,-151.61
2022-09-15T09:58:35.944Z,-151.61
2022-09-15T09:59:35.926Z,-151.61
2022-09-15T10:00:32.907Z,-152.83
2022-09-15T10:01:32.908Z,-152.83
2022-09-15T10:02:32.908Z,-154.04
2022-09-15T10:03:33.154Z,-154.04
2022-09-15T10:04:32.925Z,-154.04
2022-09-15T10:05:32.828Z,-154.04
2022-09-15T10:06:32.829Z,-154.04
2022-09-15T10:07:32.847Z,-154.04
2022-09-15T10:08:32.790Z,-154.04
2022-09-15T10:09:33.575Z,-154.04
2022-09-15T10:10:32.762Z,-155.26
2022-09-15T10:11:32.759Z,-155.26
2022-09-15T10:12:32.800Z,-155.26
2022-09-15T10:13:32.741Z,-155.26
2022-09-15T10:14:32.737Z,-155.26
2022-09-15T10:15:32.706Z,-156.48
2022-09-15T10:16:32.736Z,-156.48
2022-09-15T10:17:32.684Z,-156.48
2022-09-15T10:18:35.693Z,-156.48
2022-09-15T10:19:35.666Z,-156.48
2022-09-15T10:20:32.819Z,-156.48
2022-09-15T10:21:32.626Z,-157.70
2022-09-15T10:22:32.646Z,-156.48
2022-09-15T10:23:32.625Z,-157.70
2022-09-15T10:24:32.587Z,-156.48
2022-09-15T10:25:44.552Z,-156.48
2022-09-15T10:26:33.556Z,-156.48
2022-09-15T10:27:32.593Z,-156.48
2022-09-15T10:28:32.529Z,-156.48
2022-09-15T10:29:32.519Z,-156.48
2022-09-15T10:30:32.499Z,-156.48
2022-09-15T10:31:32.554Z,-156.48
2022-09-15T10:32:32.479Z,-156.48
2022-09-15T10:33:32.489Z,-156.48
2022-09-15T10:34:32.441Z,-155.26
2022-09-15T10:35:32.462Z,-155.26
2022-09-15T10:36:32.419Z,-155.26
2022-09-15T10:37:32.411Z,-156.48
2022-09-15T10:38:35.392Z,-155.26
2022-09-15T10:39:35.393Z,-154.04
2022-09-15T10:40:32.439Z,-154.04
2022-09-15T10:41:32.370Z,-154.04
2022-09-15T10:42:32.343Z,-155.26
2022-09-15T10:43:32.324Z,-155.26
2022-09-15T10:44:32.315Z,-154.04
2022-09-15T10:45:32.368Z,-154.04
2022-09-15T10:46:33.856Z,-155.26
2022-09-15T10:47:32.291Z,-155.26
2022-09-15T10:48:32.258Z,-155.26
2022-09-15T10:49:32.247Z,-155.26
2022-09-15T10:50:32.245Z,-155.26
2022-09-15T10:51:32.268Z,-155.26
2022-09-15T10:52:32.209Z,-155.26
2022-09-15T10:53:32.188Z,-155.26
2022-09-15T10:54:32.180Z,-155.26
2022-09-15T10:55:51.580Z,-155.26
2022-09-15T10:56:33.220Z,-155.26
2022-09-15T10:57:32.144Z,-155.26
2022-09-15T10:58:35.123Z,-154.04
2022-09-15T10:59:35.122Z,-154.04
2022-09-15T11:00:32.175Z,-154.04
2022-09-15T11:01:32.091Z,-154.04
2022-09-15T11:02:32.174Z,-155.26
2022-09-15T11:03:32.094Z,-154.04
2022-09-15T11:04:32.046Z,-154.04
2022-09-15T11:05:32.047Z,-154.04
2022-09-15T11:06:32.024Z,-154.04
2022-09-15T11:07:32.087Z,-152.83
2022-09-15T11:08:31.995Z,-151.61
2022-09-15T11:09:31.987Z,-151.61
2022-09-15T11:10:31.967Z,-151.61
2022-09-15T11:11:31.964Z,-151.61
2022-09-15T11:12:31.947Z,-151.61
2022-09-15T11:13:32.090Z,-151.61
2022-09-15T11:14:31.919Z,-151.61
2022-09-15T11:15:31.910Z,-151.61
2022-09-15T11:16:37.108Z,-151.61
2022-09-15T11:18:07.180Z,-151.61
2022-09-15T11:18:39.953Z,-154.04
2022-09-15T11:19:35.022Z,-154.04
2022-09-15T11:20:32.793Z,-154.04
2022-09-15T11:21:53.179Z,-154.04
2022-09-15T11:22:38.561Z,-152.83
2022-09-15T11:23:32.050Z,-154.04
2022-09-15T11:24:32.032Z,-154.04
2022-09-15T11:25:32.803Z,-154.04
2022-09-15T11:26:37.644Z,-154.04
2022-09-15T11:27:32.613Z,-155.26
2022-09-15T11:28:32.010Z,-155.26
2022-09-15T11:29:32.263Z,-154.04
2022-09-15T11:30:34.715Z,-155.26
2022-09-15T11:31:33.759Z,-155.26
2022-09-15T11:32:31.688Z,-155.26
2022-09-15T11:33:31.762Z,-155.26
2022-09-15T11:34:31.806Z,-154.04
2022-09-15T11:35:31.687Z,-155.26
2022-09-15T11:36:31.859Z,-155.26
2022-09-15T11:37:31.978Z,-155.26
2022-09-15T11:38:34.618Z,-156.48
2022-09-15T11:39:34.891Z,-156.48
2022-09-15T11:40:31.680Z,-157.70
2022-09-15T11:41:32.629Z,-156.48
2022-09-15T11:42:31.609Z,-156.48
2022-09-15T11:43:31.559Z,-156.48
2022-09-15T11:44:31.669Z,-156.48
2022-09-15T11:45:32.009Z,-156.48
2022-09-15T11:46:32.321Z,-156.48
2022-09-15T11:47:31.726Z,-156.48
2022-09-15T11:48:35.551Z,-156.48
2022-09-15T11:49:39.256Z,-156.48
2022-09-15T11:50:31.912Z,-157.70
2022-09-15T11:51:40.383Z,-157.70
2022-09-15T11:52:31.503Z,-157.70
2022-09-15T11:53:31.455Z,-157.70
2022-09-15T11:54:31.694Z,-157.70
2022-09-15T11:55:31.350Z,-157.70
2022-09-15T11:56:32.106Z,-157.70
2022-09-15T11:57:31.666Z,-157.70
2022-09-15T11:58:34.612Z,-156.48
2022-09-15T11:59:34.626Z,-157.70
2022-09-15T12:00:32.635Z,-157.70
2022-09-15T12:01:31.366Z,-157.70
2022-09-15T12:02:31.442Z,-157.70
2022-09-15T12:03:31.468Z,-157.70
2022-09-15T12:04:31.548Z,-157.70
2022-09-15T12:05:31.235Z,-157.70
2022-09-15T12:06:31.961Z,-157.70